sensor_id;sensor_type;location;lat;lon;timestamp;P1;durP1;ratioP1;P2;durP2;ratioP2
76065;SDS011;64763;48.928;8.474;2024-01-27T00:00:25;7.78;;;4.28;;
76065;SDS011;64763;48.928;8.474;2024-01-27T00:02:51;9.43;;;4.10;;
76065;SDS011;64763;48.928;8.474;2024-01-27T00:05:16;7.32;;;3.50;;
76065;SDS011;64763;48.928;8.474;2024-01-27T00:07:42;8.73;;;3.58;;
76065;SDS011;64763;48.928;8.474;2024-01-27T00:10:07;4.72;;;2.42;;
76065;SDS011;64763;48.928;8.474;2024-01-27T00:12:33;6.80;;;2.90;;
76065;SDS011;64763;48.928;8.474;2024-01-27T00:14:58;6.55;;;3.28;;
76065;SDS011;64763;48.928;8.474;2024-01-27T00:17:23;4.85;;;2.90;;
76065;SDS011;64763;48.928;8.474;2024-01-27T00:19:50;8.85;;;3.63;;
76065;SDS011;64763;48.928;8.474;2024-01-27T00:22:16;6.13;;;3.00;;
76065;SDS011;64763;48.928;8.474;2024-01-27T00:24:42;8.02;;;3.63;;
76065;SDS011;64763;48.928;8.474;2024-01-27T00:27:07;7.43;;;3.45;;
76065;SDS011;64763;48.928;8.474;2024-01-27T00:29:33;9.60;;;3.45;;
76065;SDS011;64763;48.928;8.474;2024-01-27T00:31:58;5.10;;;3.17;;
76065;SDS011;64763;48.928;8.474;2024-01-27T00:34:24;8.20;;;3.75;;
76065;SDS011;64763;48.928;8.474;2024-01-27T00:36:50;6.32;;;3.15;;
76065;SDS011;64763;48.928;8.474;2024-01-27T00:39:15;5.55;;;3.25;;
76065;SDS011;64763;48.928;8.474;2024-01-27T00:41:41;7.65;;;3.00;;
76065;SDS011;64763;48.928;8.474;2024-01-27T00:44:07;8.00;;;3.47;;
76065;SDS011;64763;48.928;8.474;2024-01-27T00:48:57;4.87;;;2.97;;
76065;SDS011;64763;48.928;8.474;2024-01-27T00:51:22;7.63;;;3.63;;
76065;SDS011;64763;48.928;8.474;2024-01-27T00:53:48;7.43;;;2.85;;
76065;SDS011;64763;48.928;8.474;2024-01-27T00:56:13;5.53;;;3.17;;
76065;SDS011;64763;48.928;8.474;2024-01-27T00:58:39;6.82;;;2.72;;
76065;SDS011;64763;48.928;8.474;2024-01-27T01:01:04;8.15;;;3.60;;
76065;SDS011;64763;48.928;8.474;2024-01-27T01:03:29;5.53;;;2.90;;
76065;SDS011;64763;48.928;8.474;2024-01-27T01:05:55;9.23;;;3.20;;
76065;SDS011;64763;48.928;8.474;2024-01-27T01:08:20;7.68;;;3.33;;
76065;SDS011;64763;48.928;8.474;2024-01-27T01:10:45;6.00;;;3.30;;
76065;SDS011;64763;48.928;8.474;2024-01-27T01:13:11;5.53;;;2.78;;
76065;SDS011;64763;48.928;8.474;2024-01-27T01:18:01;6.25;;;3.08;;
76065;SDS011;64763;48.928;8.474;2024-01-27T01:20:27;9.52;;;3.80;;
76065;SDS011;64763;48.928;8.474;2024-01-27T01:22:53;5.38;;;3.08;;
76065;SDS011;64763;48.928;8.474;2024-01-27T01:25:18;7.55;;;3.50;;
76065;SDS011;64763;48.928;8.474;2024-01-27T01:27:44;5.35;;;2.70;;
76065;SDS011;64763;48.928;8.474;2024-01-27T01:30:10;5.45;;;2.78;;
76065;SDS011;64763;48.928;8.474;2024-01-27T01:32:35;7.38;;;3.22;;
76065;SDS011;64763;48.928;8.474;2024-01-27T01:35:01;5.85;;;2.72;;
76065;SDS011;64763;48.928;8.474;2024-01-27T01:37:26;6.10;;;3.15;;
76065;SDS011;64763;48.928;8.474;2024-01-27T01:39:52;7.00;;;3.10;;
76065;SDS011;64763;48.928;8.474;2024-01-27T01:42:17;5.00;;;3.28;;
76065;SDS011;64763;48.928;8.474;2024-01-27T01:44:43;4.53;;;3.05;;
76065;SDS011;64763;48.928;8.474;2024-01-27T01:49:34;10.37;;;3.33;;
76065;SDS011;64763;48.928;8.474;2024-01-27T01:51:59;5.93;;;3.70;;
76065;SDS011;64763;48.928;8.474;2024-01-27T01:54:24;9.65;;;3.10;;
76065;SDS011;64763;48.928;8.474;2024-01-27T01:56:52;4.10;;;2.67;;
76065;SDS011;64763;48.928;8.474;2024-01-27T01:59:20;6.15;;;2.67;;
76065;SDS011;64763;48.928;8.474;2024-01-27T02:01:45;5.50;;;2.65;;
76065;SDS011;64763;48.928;8.474;2024-01-27T02:04:10;5.75;;;2.55;;
76065;SDS011;64763;48.928;8.474;2024-01-27T02:06:36;5.10;;;2.92;;
76065;SDS011;64763;48.928;8.474;2024-01-27T02:09:01;7.45;;;2.30;;
76065;SDS011;64763;48.928;8.474;2024-01-27T02:13:51;4.30;;;2.00;;
76065;SDS011;64763;48.928;8.474;2024-01-27T02:16:17;3.95;;;2.45;;
76065;SDS011;64763;48.928;8.474;2024-01-27T02:18:42;7.13;;;3.13;;
76065;SDS011;64763;48.928;8.474;2024-01-27T02:23:33;2.63;;;1.90;;
76065;SDS011;64763;48.928;8.474;2024-01-27T02:25:59;3.60;;;2.42;;
76065;SDS011;64763;48.928;8.474;2024-01-27T02:28:24;3.55;;;2.05;;
76065;SDS011;64763;48.928;8.474;2024-01-27T02:30:49;3.83;;;1.73;;
76065;SDS011;64763;48.928;8.474;2024-01-27T02:35:40;4.30;;;2.30;;
76065;SDS011;64763;48.928;8.474;2024-01-27T02:38:06;5.43;;;2.30;;
76065;SDS011;64763;48.928;8.474;2024-01-27T02:40:31;4.10;;;2.42;;
76065;SDS011;64763;48.928;8.474;2024-01-27T02:45:21;4.67;;;2.03;;
76065;SDS011;64763;48.928;8.474;2024-01-27T02:47:47;4.03;;;1.83;;
76065;SDS011;64763;48.928;8.474;2024-01-27T02:50:12;2.70;;;1.98;;
76065;SDS011;64763;48.928;8.474;2024-01-27T02:52:38;6.70;;;2.47;;
76065;SDS011;64763;48.928;8.474;2024-01-27T02:55:03;3.20;;;2.10;;
76065;SDS011;64763;48.928;8.474;2024-01-27T02:57:29;5.32;;;2.40;;
76065;SDS011;64763;48.928;8.474;2024-01-27T02:59:54;3.05;;;2.10;;
76065;SDS011;64763;48.928;8.474;2024-01-27T03:02:20;5.18;;;2.22;;
76065;SDS011;64763;48.928;8.474;2024-01-27T03:04:45;6.35;;;2.55;;
76065;SDS011;64763;48.928;8.474;2024-01-27T03:07:10;7.10;;;2.42;;
76065;SDS011;64763;48.928;8.474;2024-01-27T03:09:36;4.55;;;2.40;;
76065;SDS011;64763;48.928;8.474;2024-01-27T03:12:01;4.18;;;2.20;;
76065;SDS011;64763;48.928;8.474;2024-01-27T03:14:27;4.25;;;2.47;;
76065;SDS011;64763;48.928;8.474;2024-01-27T03:16:52;7.03;;;2.83;;
76065;SDS011;64763;48.928;8.474;2024-01-27T03:21:43;4.77;;;2.13;;
76065;SDS011;64763;48.928;8.474;2024-01-27T03:24:08;7.28;;;2.30;;
76065;SDS011;64763;48.928;8.474;2024-01-27T03:26:34;6.22;;;2.83;;
76065;SDS011;64763;48.928;8.474;2024-01-27T03:28:59;4.60;;;1.92;;
76065;SDS011;64763;48.928;8.474;2024-01-27T03:31:31;3.58;;;2.10;;
76065;SDS011;64763;48.928;8.474;2024-01-27T03:36:23;5.47;;;1.52;;
76065;SDS011;64763;48.928;8.474;2024-01-27T03:38:48;5.72;;;2.00;;
76065;SDS011;64763;48.928;8.474;2024-01-27T03:41:14;4.85;;;2.50;;
76065;SDS011;64763;48.928;8.474;2024-01-27T03:43:39;6.13;;;1.83;;
76065;SDS011;64763;48.928;8.474;2024-01-27T03:46:04;6.63;;;2.35;;
76065;SDS011;64763;48.928;8.474;2024-01-27T03:48:30;6.68;;;2.78;;
76065;SDS011;64763;48.928;8.474;2024-01-27T03:50:55;5.28;;;2.95;;
76065;SDS011;64763;48.928;8.474;2024-01-27T03:53:20;5.28;;;2.50;;
76065;SDS011;64763;48.928;8.474;2024-01-27T03:58:11;4.83;;;2.10;;
76065;SDS011;64763;48.928;8.474;2024-01-27T04:00:36;5.97;;;2.40;;
76065;SDS011;64763;48.928;8.474;2024-01-27T04:03:02;5.68;;;1.83;;
76065;SDS011;64763;48.928;8.474;2024-01-27T04:05:30;5.82;;;2.40;;
76065;SDS011;64763;48.928;8.474;2024-01-27T04:07:56;6.13;;;2.10;;
76065;SDS011;64763;48.928;8.474;2024-01-27T04:10:22;5.88;;;1.70;;
76065;SDS011;64763;48.928;8.474;2024-01-27T04:12:47;4.55;;;2.28;;
76065;SDS011;64763;48.928;8.474;2024-01-27T04:15:13;3.65;;;2.22;;
76065;SDS011;64763;48.928;8.474;2024-01-27T04:17:39;3.58;;;2.10;;
76065;SDS011;64763;48.928;8.474;2024-01-27T04:20:05;4.28;;;2.72;;
76065;SDS011;64763;48.928;8.474;2024-01-27T04:22:31;2.97;;;2.08;;
76065;SDS011;64763;48.928;8.474;2024-01-27T04:24:57;5.82;;;2.30;;
76065;SDS011;64763;48.928;8.474;2024-01-27T04:27:22;6.00;;;2.38;;
76065;SDS011;64763;48.928;8.474;2024-01-27T04:29:48;5.32;;;3.03;;
76065;SDS011;64763;48.928;8.474;2024-01-27T04:32:13;7.50;;;2.42;;
76065;SDS011;64763;48.928;8.474;2024-01-27T04:34:39;10.32;;;2.35;;
76065;SDS011;64763;48.928;8.474;2024-01-27T04:37:04;8.13;;;2.40;;
76065;SDS011;64763;48.928;8.474;2024-01-27T04:39:30;4.28;;;2.17;;
76065;SDS011;64763;48.928;8.474;2024-01-27T04:41:56;5.43;;;1.98;;
76065;SDS011;64763;48.928;8.474;2024-01-27T04:44:21;4.28;;;2.38;;
76065;SDS011;64763;48.928;8.474;2024-01-27T04:46:46;4.97;;;2.55;;
76065;SDS011;64763;48.928;8.474;2024-01-27T04:49:12;5.47;;;2.33;;
76065;SDS011;64763;48.928;8.474;2024-01-27T04:51:37;5.18;;;2.03;;
76065;SDS011;64763;48.928;8.474;2024-01-27T04:54:02;3.75;;;2.20;;
76065;SDS011;64763;48.928;8.474;2024-01-27T04:56:28;5.65;;;2.72;;
76065;SDS011;64763;48.928;8.474;2024-01-27T04:58:53;6.63;;;2.10;;
76065;SDS011;64763;48.928;8.474;2024-01-27T05:03:44;3.90;;;1.97;;
76065;SDS011;64763;48.928;8.474;2024-01-27T05:06:09;4.30;;;2.22;;
76065;SDS011;64763;48.928;8.474;2024-01-27T05:08:38;6.10;;;2.53;;
76065;SDS011;64763;48.928;8.474;2024-01-27T05:11:04;4.28;;;2.50;;
76065;SDS011;64763;48.928;8.474;2024-01-27T05:15:54;4.47;;;2.90;;
76065;SDS011;64763;48.928;8.474;2024-01-27T05:20:45;4.60;;;2.80;;
76065;SDS011;64763;48.928;8.474;2024-01-27T05:25:35;3.83;;;2.10;;
76065;SDS011;64763;48.928;8.474;2024-01-27T05:30:27;6.70;;;3.90;;
76065;SDS011;64763;48.928;8.474;2024-01-27T05:35:17;6.73;;;3.73;;
76065;SDS011;64763;48.928;8.474;2024-01-27T05:40:08;7.77;;;2.57;;
76065;SDS011;64763;48.928;8.474;2024-01-27T05:42:34;4.85;;;2.38;;
76065;SDS011;64763;48.928;8.474;2024-01-27T05:47:25;3.63;;;2.50;;
76065;SDS011;64763;48.928;8.474;2024-01-27T05:52:16;7.20;;;2.40;;
76065;SDS011;64763;48.928;8.474;2024-01-27T05:54:41;8.93;;;3.28;;
76065;SDS011;64763;48.928;8.474;2024-01-27T05:59:32;4.63;;;2.43;;
76065;SDS011;64763;48.928;8.474;2024-01-27T06:04:23;2.87;;;1.90;;
76065;SDS011;64763;48.928;8.474;2024-01-27T06:09:13;4.40;;;2.23;;
76065;SDS011;64763;48.928;8.474;2024-01-27T06:14:04;3.63;;;2.30;;
76065;SDS011;64763;48.928;8.474;2024-01-27T06:18:54;3.67;;;2.80;;
76065;SDS011;64763;48.928;8.474;2024-01-27T06:23:45;8.68;;;3.55;;
76065;SDS011;64763;48.928;8.474;2024-01-27T06:28:37;4.80;;;2.88;;
76065;SDS011;64763;48.928;8.474;2024-01-27T06:33:28;4.72;;;2.83;;
76065;SDS011;64763;48.928;8.474;2024-01-27T06:38:19;4.37;;;2.37;;
76065;SDS011;64763;48.928;8.474;2024-01-27T06:43:11;5.93;;;3.57;;
76065;SDS011;64763;48.928;8.474;2024-01-27T06:45:37;5.40;;;3.53;;
76065;SDS011;64763;48.928;8.474;2024-01-27T06:50:29;5.07;;;3.03;;
76065;SDS011;64763;48.928;8.474;2024-01-27T06:55:19;4.30;;;2.53;;
76065;SDS011;64763;48.928;8.474;2024-01-27T07:00:10;14.10;;;4.03;;
76065;SDS011;64763;48.928;8.474;2024-01-27T07:02:39;7.95;;;3.92;;
76065;SDS011;64763;48.928;8.474;2024-01-27T07:07:30;8.65;;;3.20;;
76065;SDS011;64763;48.928;8.474;2024-01-27T07:12:22;6.45;;;3.33;;
76065;SDS011;64763;48.928;8.474;2024-01-27T07:17:12;9.97;;;5.43;;
76065;SDS011;64763;48.928;8.474;2024-01-27T07:22:03;10.90;;;6.10;;
76065;SDS011;64763;48.928;8.474;2024-01-27T07:26:54;12.52;;;5.65;;
76065;SDS011;64763;48.928;8.474;2024-01-27T07:31:45;5.43;;;3.40;;
76065;SDS011;64763;48.928;8.474;2024-01-27T07:36:35;5.00;;;3.03;;
76065;SDS011;64763;48.928;8.474;2024-01-27T07:41:26;6.70;;;3.35;;
76065;SDS011;64763;48.928;8.474;2024-01-27T07:46:19;4.18;;;2.70;;
76065;SDS011;64763;48.928;8.474;2024-01-27T07:48:47;8.60;;;4.40;;
76065;SDS011;64763;48.928;8.474;2024-01-27T07:51:12;10.60;;;6.28;;
76065;SDS011;64763;48.928;8.474;2024-01-27T07:56:03;8.53;;;5.33;;
76065;SDS011;64763;48.928;8.474;2024-01-27T07:58:29;16.00;;;6.35;;
76065;SDS011;64763;48.928;8.474;2024-01-27T08:00:54;17.25;;;7.50;;
76065;SDS011;64763;48.928;8.474;2024-01-27T08:03:19;16.23;;;8.05;;
76065;SDS011;64763;48.928;8.474;2024-01-27T08:08:10;13.83;;;6.13;;
76065;SDS011;64763;48.928;8.474;2024-01-27T08:13:01;11.15;;;5.15;;
76065;SDS011;64763;48.928;8.474;2024-01-27T08:15:27;9.82;;;5.57;;
76065;SDS011;64763;48.928;8.474;2024-01-27T08:20:17;12.47;;;4.67;;
76065;SDS011;64763;48.928;8.474;2024-01-27T08:22:43;7.95;;;4.13;;
76065;SDS011;64763;48.928;8.474;2024-01-27T08:25:08;11.85;;;4.70;;
76065;SDS011;64763;48.928;8.474;2024-01-27T08:27:34;9.75;;;5.13;;
76065;SDS011;64763;48.928;8.474;2024-01-27T08:29:59;10.45;;;4.50;;
76065;SDS011;64763;48.928;8.474;2024-01-27T08:32:25;12.13;;;4.70;;
76065;SDS011;64763;48.928;8.474;2024-01-27T08:34:50;7.57;;;3.67;;
76065;SDS011;64763;48.928;8.474;2024-01-27T08:37:17;9.07;;;3.92;;
76065;SDS011;64763;48.928;8.474;2024-01-27T08:39:43;7.95;;;4.28;;
76065;SDS011;64763;48.928;8.474;2024-01-27T08:42:08;10.20;;;4.53;;
76065;SDS011;64763;48.928;8.474;2024-01-27T08:44:34;6.60;;;4.25;;
76065;SDS011;64763;48.928;8.474;2024-01-27T08:46:59;11.57;;;5.22;;
76065;SDS011;64763;48.928;8.474;2024-01-27T08:49:25;10.77;;;4.68;;
76065;SDS011;64763;48.928;8.474;2024-01-27T08:51:50;9.82;;;5.05;;
76065;SDS011;64763;48.928;8.474;2024-01-27T08:54:15;13.80;;;5.22;;
76065;SDS011;64763;48.928;8.474;2024-01-27T08:56:41;9.50;;;5.07;;
76065;SDS011;64763;48.928;8.474;2024-01-27T08:59:06;7.60;;;4.55;;
76065;SDS011;64763;48.928;8.474;2024-01-27T09:01:32;8.55;;;4.13;;
76065;SDS011;64763;48.928;8.474;2024-01-27T09:03:57;11.25;;;4.72;;
76065;SDS011;64763;48.928;8.474;2024-01-27T09:06:22;10.80;;;4.75;;
76065;SDS011;64763;48.928;8.474;2024-01-27T09:08:48;13.15;;;6.47;;
76065;SDS011;64763;48.928;8.474;2024-01-27T09:11:13;12.77;;;4.55;;
76065;SDS011;64763;48.928;8.474;2024-01-27T09:13:39;8.43;;;4.90;;
76065;SDS011;64763;48.928;8.474;2024-01-27T09:16:04;8.73;;;4.70;;
76065;SDS011;64763;48.928;8.474;2024-01-27T09:18:30;8.40;;;5.00;;
76065;SDS011;64763;48.928;8.474;2024-01-27T09:20:55;11.48;;;4.68;;
76065;SDS011;64763;48.928;8.474;2024-01-27T09:23:20;17.27;;;5.57;;
76065;SDS011;64763;48.928;8.474;2024-01-27T09:25:46;9.38;;;4.53;;
76065;SDS011;64763;48.928;8.474;2024-01-27T09:28:11;10.82;;;4.95;;
76065;SDS011;64763;48.928;8.474;2024-01-27T09:30:37;10.18;;;4.63;;
76065;SDS011;64763;48.928;8.474;2024-01-27T09:33:03;7.47;;;4.40;;
76065;SDS011;64763;48.928;8.474;2024-01-27T09:35:28;7.43;;;3.92;;
76065;SDS011;64763;48.928;8.474;2024-01-27T09:37:54;9.10;;;4.05;;
76065;SDS011;64763;48.928;8.474;2024-01-27T09:40:19;11.55;;;4.20;;
76065;SDS011;64763;48.928;8.474;2024-01-27T09:42:50;9.02;;;4.03;;
76065;SDS011;64763;48.928;8.474;2024-01-27T09:45:22;6.60;;;3.15;;
76065;SDS011;64763;48.928;8.474;2024-01-27T09:47:48;7.72;;;3.17;;
76065;SDS011;64763;48.928;8.474;2024-01-27T09:50:14;7.38;;;3.17;;
76065;SDS011;64763;48.928;8.474;2024-01-27T09:52:39;9.38;;;3.13;;
76065;SDS011;64763;48.928;8.474;2024-01-27T09:55:05;8.18;;;3.20;;
76065;SDS011;64763;48.928;8.474;2024-01-27T09:57:30;10.63;;;3.95;;
76065;SDS011;64763;48.928;8.474;2024-01-27T09:59:56;16.52;;;6.85;;
76065;SDS011;64763;48.928;8.474;2024-01-27T10:02:22;9.00;;;5.03;;
76065;SDS011;64763;48.928;8.474;2024-01-27T10:04:49;20.13;;;7.80;;
76065;SDS011;64763;48.928;8.474;2024-01-27T10:07:14;7.30;;;4.53;;
76065;SDS011;64763;48.928;8.474;2024-01-27T10:09:40;8.57;;;5.00;;
76065;SDS011;64763;48.928;8.474;2024-01-27T10:12:06;8.57;;;4.68;;
76065;SDS011;64763;48.928;8.474;2024-01-27T10:14:39;7.60;;;3.28;;
76065;SDS011;64763;48.928;8.474;2024-01-27T10:17:05;8.45;;;3.38;;
76065;SDS011;64763;48.928;8.474;2024-01-27T10:19:30;4.97;;;3.20;;
76065;SDS011;64763;48.928;8.474;2024-01-27T10:22:02;5.15;;;3.00;;
76065;SDS011;64763;48.928;8.474;2024-01-27T10:24:28;6.75;;;2.35;;
76065;SDS011;64763;48.928;8.474;2024-01-27T10:27:02;3.55;;;2.13;;
76065;SDS011;64763;48.928;8.474;2024-01-27T10:29:29;4.38;;;2.55;;
76065;SDS011;64763;48.928;8.474;2024-01-27T10:31:55;4.85;;;2.40;;
76065;SDS011;64763;48.928;8.474;2024-01-27T10:34:20;2.75;;;1.92;;
76065;SDS011;64763;48.928;8.474;2024-01-27T10:36:46;5.43;;;2.90;;
76065;SDS011;64763;48.928;8.474;2024-01-27T10:39:21;8.90;;;2.53;;
76065;SDS011;64763;48.928;8.474;2024-01-27T10:41:47;7.93;;;2.22;;
76065;SDS011;64763;48.928;8.474;2024-01-27T10:44:14;7.18;;;2.42;;
76065;SDS011;64763;48.928;8.474;2024-01-27T10:46:41;7.53;;;2.70;;
76065;SDS011;64763;48.928;8.474;2024-01-27T10:49:08;7.18;;;3.03;;
76065;SDS011;64763;48.928;8.474;2024-01-27T10:51:37;7.57;;;2.72;;
76065;SDS011;64763;48.928;8.474;2024-01-27T10:54:05;5.50;;;2.47;;
76065;SDS011;64763;48.928;8.474;2024-01-27T10:56:33;4.15;;;2.45;;
76065;SDS011;64763;48.928;8.474;2024-01-27T10:58:59;5.38;;;2.88;;
76065;SDS011;64763;48.928;8.474;2024-01-27T11:01:24;4.72;;;2.80;;
76065;SDS011;64763;48.928;8.474;2024-01-27T11:03:52;4.38;;;2.28;;
76065;SDS011;64763;48.928;8.474;2024-01-27T11:06:17;4.13;;;2.70;;
76065;SDS011;64763;48.928;8.474;2024-01-27T11:08:44;5.15;;;2.50;;
76065;SDS011;64763;48.928;8.474;2024-01-27T11:11:10;5.18;;;2.30;;
76065;SDS011;64763;48.928;8.474;2024-01-27T11:13:35;8.48;;;2.95;;
76065;SDS011;64763;48.928;8.474;2024-01-27T11:16:02;4.15;;;2.33;;
76065;SDS011;64763;48.928;8.474;2024-01-27T11:18:27;4.55;;;2.30;;
76065;SDS011;64763;48.928;8.474;2024-01-27T11:20:54;7.80;;;2.20;;
76065;SDS011;64763;48.928;8.474;2024-01-27T11:23:20;3.95;;;2.25;;
76065;SDS011;64763;48.928;8.474;2024-01-27T11:26:06;7.63;;;2.50;;
76065;SDS011;64763;48.928;8.474;2024-01-27T11:28:32;4.70;;;1.90;;
76065;SDS011;64763;48.928;8.474;2024-01-27T11:30:57;7.10;;;2.97;;
76065;SDS011;64763;48.928;8.474;2024-01-27T11:33:25;7.63;;;3.53;;
76065;SDS011;64763;48.928;8.474;2024-01-27T11:36:03;4.43;;;2.53;;
76065;SDS011;64763;48.928;8.474;2024-01-27T11:38:30;5.70;;;2.38;;
76065;SDS011;64763;48.928;8.474;2024-01-27T11:40:56;7.00;;;2.60;;
76065;SDS011;64763;48.928;8.474;2024-01-27T11:43:21;7.60;;;2.80;;
76065;SDS011;64763;48.928;8.474;2024-01-27T11:45:59;5.65;;;2.03;;
76065;SDS011;64763;48.928;8.474;2024-01-27T11:48:25;6.28;;;1.90;;
76065;SDS011;64763;48.928;8.474;2024-01-27T11:51:05;4.22;;;2.17;;
76065;SDS011;64763;48.928;8.474;2024-01-27T11:53:32;6.53;;;3.00;;
76065;SDS011;64763;48.928;8.474;2024-01-27T11:55:58;6.85;;;3.25;;
76065;SDS011;64763;48.928;8.474;2024-01-27T11:58:25;7.07;;;3.83;;
76065;SDS011;64763;48.928;8.474;2024-01-27T12:00:50;4.45;;;2.33;;
76065;SDS011;64763;48.928;8.474;2024-01-27T12:03:16;4.40;;;2.08;;
76065;SDS011;64763;48.928;8.474;2024-01-27T12:05:42;4.10;;;1.98;;
76065;SDS011;64763;48.928;8.474;2024-01-27T12:08:08;7.75;;;1.98;;
76065;SDS011;64763;48.928;8.474;2024-01-27T12:10:33;4.60;;;1.85;;
76065;SDS011;64763;48.928;8.474;2024-01-27T12:12:58;3.88;;;1.95;;
76065;SDS011;64763;48.928;8.474;2024-01-27T12:15:24;4.13;;;1.83;;
76065;SDS011;64763;48.928;8.474;2024-01-27T12:17:51;6.90;;;2.55;;
76065;SDS011;64763;48.928;8.474;2024-01-27T12:20:17;5.60;;;2.03;;
76065;SDS011;64763;48.928;8.474;2024-01-27T12:22:42;5.53;;;2.25;;
76065;SDS011;64763;48.928;8.474;2024-01-27T12:25:08;6.40;;;2.33;;
76065;SDS011;64763;48.928;8.474;2024-01-27T12:27:35;4.18;;;2.60;;
76065;SDS011;64763;48.928;8.474;2024-01-27T12:30:01;5.57;;;2.67;;
76065;SDS011;64763;48.928;8.474;2024-01-27T12:32:30;5.78;;;2.35;;
76065;SDS011;64763;48.928;8.474;2024-01-27T12:34:56;8.55;;;2.80;;
76065;SDS011;64763;48.928;8.474;2024-01-27T12:37:23;5.63;;;2.58;;
76065;SDS011;64763;48.928;8.474;2024-01-27T12:39:49;6.40;;;2.88;;
76065;SDS011;64763;48.928;8.474;2024-01-27T12:42:17;7.22;;;2.90;;
76065;SDS011;64763;48.928;8.474;2024-01-27T12:44:42;7.63;;;2.92;;
76065;SDS011;64763;48.928;8.474;2024-01-27T12:47:11;13.85;;;3.10;;
76065;SDS011;64763;48.928;8.474;2024-01-27T12:49:36;4.70;;;2.47;;
76065;SDS011;64763;48.928;8.474;2024-01-27T12:52:02;8.73;;;2.60;;
76065;SDS011;64763;48.928;8.474;2024-01-27T12:54:27;5.88;;;2.30;;
76065;SDS011;64763;48.928;8.474;2024-01-27T12:56:53;3.72;;;2.10;;
76065;SDS011;64763;48.928;8.474;2024-01-27T12:59:18;6.82;;;2.95;;
76065;SDS011;64763;48.928;8.474;2024-01-27T13:01:44;7.15;;;2.20;;
76065;SDS011;64763;48.928;8.474;2024-01-27T13:04:09;6.38;;;2.40;;
76065;SDS011;64763;48.928;8.474;2024-01-27T13:06:35;5.63;;;2.63;;
76065;SDS011;64763;48.928;8.474;2024-01-27T13:09:00;5.93;;;2.15;;
76065;SDS011;64763;48.928;8.474;2024-01-27T13:11:26;3.97;;;2.05;;
76065;SDS011;64763;48.928;8.474;2024-01-27T13:13:51;5.90;;;2.65;;
76065;SDS011;64763;48.928;8.474;2024-01-27T13:16:17;4.65;;;2.20;;
76065;SDS011;64763;48.928;8.474;2024-01-27T13:18:42;4.28;;;2.17;;
76065;SDS011;64763;48.928;8.474;2024-01-27T13:21:09;4.35;;;2.10;;
76065;SDS011;64763;48.928;8.474;2024-01-27T13:23:35;5.15;;;2.47;;
76065;SDS011;64763;48.928;8.474;2024-01-27T13:26:01;5.32;;;2.08;;
76065;SDS011;64763;48.928;8.474;2024-01-27T13:28:26;4.47;;;2.38;;
76065;SDS011;64763;48.928;8.474;2024-01-27T13:30:53;5.18;;;2.45;;
76065;SDS011;64763;48.928;8.474;2024-01-27T13:33:19;5.18;;;2.30;;
76065;SDS011;64763;48.928;8.474;2024-01-27T13:35:44;5.05;;;2.28;;
76065;SDS011;64763;48.928;8.474;2024-01-27T13:38:14;3.92;;;2.45;;
76065;SDS011;64763;48.928;8.474;2024-01-27T13:40:40;5.05;;;2.67;;
76065;SDS011;64763;48.928;8.474;2024-01-27T13:43:08;4.18;;;2.10;;
76065;SDS011;64763;48.928;8.474;2024-01-27T13:45:34;5.07;;;2.38;;
76065;SDS011;64763;48.928;8.474;2024-01-27T13:47:59;6.40;;;2.97;;
76065;SDS011;64763;48.928;8.474;2024-01-27T13:50:25;4.75;;;2.42;;
76065;SDS011;64763;48.928;8.474;2024-01-27T13:52:51;6.55;;;2.58;;
76065;SDS011;64763;48.928;8.474;2024-01-27T13:55:16;3.97;;;2.45;;
76065;SDS011;64763;48.928;8.474;2024-01-27T13:57:43;5.07;;;2.92;;
76065;SDS011;64763;48.928;8.474;2024-01-27T14:00:09;6.75;;;2.88;;
76065;SDS011;64763;48.928;8.474;2024-01-27T14:02:38;8.05;;;3.92;;
76065;SDS011;64763;48.928;8.474;2024-01-27T14:05:04;5.90;;;3.10;;
76065;SDS011;64763;48.928;8.474;2024-01-27T14:07:29;8.02;;;3.25;;
76065;SDS011;64763;48.928;8.474;2024-01-27T14:09:55;7.63;;;3.40;;
76065;SDS011;64763;48.928;8.474;2024-01-27T14:12:21;6.72;;;3.05;;
76065;SDS011;64763;48.928;8.474;2024-01-27T14:14:46;7.03;;;3.20;;
76065;SDS011;64763;48.928;8.474;2024-01-27T14:17:13;6.03;;;3.05;;
76065;SDS011;64763;48.928;8.474;2024-01-27T14:19:39;6.63;;;2.83;;
76065;SDS011;64763;48.928;8.474;2024-01-27T14:22:05;5.97;;;3.05;;
76065;SDS011;64763;48.928;8.474;2024-01-27T14:24:31;8.32;;;3.10;;
76065;SDS011;64763;48.928;8.474;2024-01-27T14:26:58;5.28;;;3.10;;
76065;SDS011;64763;48.928;8.474;2024-01-27T14:29:23;6.82;;;3.20;;
76065;SDS011;64763;48.928;8.474;2024-01-27T14:31:49;5.82;;;3.50;;
76065;SDS011;64763;48.928;8.474;2024-01-27T14:34:14;5.85;;;2.85;;
76065;SDS011;64763;48.928;8.474;2024-01-27T14:36:39;9.07;;;2.95;;
76065;SDS011;64763;48.928;8.474;2024-01-27T14:39:05;8.23;;;2.70;;
76065;SDS011;64763;48.928;8.474;2024-01-27T14:41:35;5.75;;;2.92;;
76065;SDS011;64763;48.928;8.474;2024-01-27T14:44:04;8.75;;;2.83;;
76065;SDS011;64763;48.928;8.474;2024-01-27T14:46:29;5.07;;;2.72;;
76065;SDS011;64763;48.928;8.474;2024-01-27T14:48:54;6.40;;;2.80;;
76065;SDS011;64763;48.928;8.474;2024-01-27T14:51:23;3.95;;;2.55;;
76065;SDS011;64763;48.928;8.474;2024-01-27T14:53:48;6.72;;;3.22;;
76065;SDS011;64763;48.928;8.474;2024-01-27T14:56:14;4.15;;;3.15;;
76065;SDS011;64763;48.928;8.474;2024-01-27T14:58:40;6.50;;;2.83;;
76065;SDS011;64763;48.928;8.474;2024-01-27T15:01:05;7.50;;;3.00;;
76065;SDS011;64763;48.928;8.474;2024-01-27T15:03:30;4.78;;;2.38;;
76065;SDS011;64763;48.928;8.474;2024-01-27T15:05:56;9.40;;;2.70;;
76065;SDS011;64763;48.928;8.474;2024-01-27T15:08:21;5.55;;;2.75;;
76065;SDS011;64763;48.928;8.474;2024-01-27T15:10:47;7.18;;;3.35;;
76065;SDS011;64763;48.928;8.474;2024-01-27T15:13:12;7.07;;;2.72;;
76065;SDS011;64763;48.928;8.474;2024-01-27T15:15:39;9.10;;;3.10;;
76065;SDS011;64763;48.928;8.474;2024-01-27T15:18:05;8.23;;;3.42;;
76065;SDS011;64763;48.928;8.474;2024-01-27T15:20:30;6.25;;;3.10;;
76065;SDS011;64763;48.928;8.474;2024-01-27T15:22:56;8.93;;;3.38;;
76065;SDS011;64763;48.928;8.474;2024-01-27T15:25:21;4.25;;;2.40;;
76065;SDS011;64763;48.928;8.474;2024-01-27T15:27:47;7.72;;;3.15;;
76065;SDS011;64763;48.928;8.474;2024-01-27T15:30:13;7.22;;;3.00;;
76065;SDS011;64763;48.928;8.474;2024-01-27T15:32:39;6.40;;;2.70;;
76065;SDS011;64763;48.928;8.474;2024-01-27T15:35:05;6.93;;;3.17;;
76065;SDS011;64763;48.928;8.474;2024-01-27T15:37:31;10.32;;;3.45;;
76065;SDS011;64763;48.928;8.474;2024-01-27T15:39:56;8.07;;;2.75;;
76065;SDS011;64763;48.928;8.474;2024-01-27T15:42:22;6.82;;;3.42;;
76065;SDS011;64763;48.928;8.474;2024-01-27T15:44:47;5.90;;;3.38;;
76065;SDS011;64763;48.928;8.474;2024-01-27T15:47:12;6.72;;;3.63;;
76065;SDS011;64763;48.928;8.474;2024-01-27T15:49:38;7.15;;;3.22;;
76065;SDS011;64763;48.928;8.474;2024-01-27T15:52:03;9.40;;;3.72;;
76065;SDS011;64763;48.928;8.474;2024-01-27T15:54:29;6.18;;;3.20;;
76065;SDS011;64763;48.928;8.474;2024-01-27T15:56:54;9.63;;;3.50;;
76065;SDS011;64763;48.928;8.474;2024-01-27T15:59:20;6.63;;;3.42;;
76065;SDS011;64763;48.928;8.474;2024-01-27T16:01:45;6.13;;;3.40;;
76065;SDS011;64763;48.928;8.474;2024-01-27T16:04:11;6.50;;;3.70;;
76065;SDS011;64763;48.928;8.474;2024-01-27T16:06:36;8.30;;;3.83;;
76065;SDS011;64763;48.928;8.474;2024-01-27T16:09:02;6.43;;;3.45;;
76065;SDS011;64763;48.928;8.474;2024-01-27T16:11:28;9.30;;;3.85;;
76065;SDS011;64763;48.928;8.474;2024-01-27T16:13:54;6.78;;;3.38;;
76065;SDS011;64763;48.928;8.474;2024-01-27T16:16:19;6.35;;;3.40;;
76065;SDS011;64763;48.928;8.474;2024-01-27T16:18:48;7.85;;;3.67;;
76065;SDS011;64763;48.928;8.474;2024-01-27T16:21:13;7.45;;;4.90;;
76065;SDS011;64763;48.928;8.474;2024-01-27T16:23:39;8.48;;;3.75;;
76065;SDS011;64763;48.928;8.474;2024-01-27T16:26:04;6.03;;;3.22;;